createdAt,value
2018-11-20T00:00:31.978Z,986.88
2018-11-20T00:01:31.966Z,986.86
2018-11-20T00:02:31.958Z,986.82
2018-11-20T00:03:31.951Z,986.76
2018-11-20T00:04:31.937Z,986.75
2018-11-20T00:05:31.931Z,986.86
2018-11-20T00:06:31.929Z,986.78
2018-11-20T00:07:31.911Z,986.81
2018-11-20T00:08:31.894Z,986.75
2018-11-20T00:09:31.886Z,986.77
2018-11-20T00:10:31.892Z,986.73
2018-11-20T00:11:31.872Z,986.84
2018-11-20T00:12:31.859Z,986.77
2018-11-20T00:13:31.849Z,986.74
2018-11-20T00:14:31.837Z,986.78
2018-11-20T00:15:31.833Z,986.74
2018-11-20T00:16:31.820Z,986.73
2018-11-20T00:17:31.808Z,986.71
2018-11-20T00:18:31.800Z,986.75
2018-11-20T00:19:31.795Z,986.68
2018-11-20T00:20:31.782Z,986.71
2018-11-20T00:21:31.772Z,986.65
2018-11-20T00:22:31.761Z,986.66
2018-11-20T00:23:31.750Z,986.66
2018-11-20T00:24:31.740Z,986.63
2018-11-20T00:25:31.732Z,986.72
2018-11-20T00:26:31.722Z,986.63
2018-11-20T00:27:31.712Z,986.59
2018-11-20T00:28:31.699Z,986.65
2018-11-20T00:29:31.692Z,986.67
2018-11-20T00:30:31.674Z,986.57
2018-11-20T00:31:31.670Z,986.65
2018-11-20T00:32:31.663Z,986.60
2018-11-20T00:33:31.651Z,986.57
2018-11-20T00:34:31.641Z,986.53
2018-11-20T00:35:31.638Z,986.55
2018-11-20T00:36:31.621Z,986.56
2018-11-20T00:37:31.614Z,986.52
2018-11-20T00:38:31.598Z,986.49
2018-11-20T00:39:31.600Z,986.50
2018-11-20T00:40:31.583Z,986.51
2018-11-20T00:41:31.571Z,986.46
2018-11-20T00:42:31.622Z,986.43
2018-11-20T00:43:31.551Z,986.40
2018-11-20T00:44:31.547Z,986.39
2018-11-20T00:45:31.535Z,986.40
2018-11-20T00:46:31.517Z,986.35
2018-11-20T00:47:31.508Z,986.36
2018-11-20T00:48:31.502Z,986.38
2018-11-20T00:49:31.495Z,986.41
2018-11-20T00:50:31.482Z,986.30
2018-11-20T00:51:31.475Z,986.36
2018-11-20T00:52:31.460Z,986.34
2018-11-20T00:53:31.451Z,986.33
2018-11-20T00:54:31.447Z,986.36
2018-11-20T00:55:31.436Z,986.40
2018-11-20T00:56:31.421Z,986.39
2018-11-20T00:57:31.408Z,986.27
2018-11-20T00:58:31.410Z,986.29
2018-11-20T00:59:31.398Z,986.18
2018-11-20T01:00:31.381Z,986.28
2018-11-20T01:01:31.372Z,986.16
2018-11-20T01:02:31.362Z,986.16
2018-11-20T01:03:31.352Z,986.10
2018-11-20T01:04:31.341Z,986.21
2018-11-20T01:05:31.412Z,986.14
2018-11-20T01:06:31.320Z,986.12
2018-11-20T01:07:31.308Z,986.05
2018-11-20T01:08:31.303Z,986.09
2018-11-20T01:09:31.291Z,986.11
2018-11-20T01:10:31.283Z,986.12
2018-11-20T01:11:31.275Z,986.16
2018-11-20T01:12:31.261Z,986.03
2018-11-20T01:13:31.251Z,986.02
2018-11-20T01:14:31.247Z,986.02
2018-11-20T01:15:31.234Z,986.00
2018-11-20T01:16:31.216Z,985.96
2018-11-20T01:17:31.209Z,985.97
2018-11-20T01:18:31.206Z,985.97
2018-11-20T01:19:31.193Z,985.97
2018-11-20T01:20:31.179Z,985.99
2018-11-20T01:21:31.176Z,985.94
2018-11-20T01:22:31.163Z,985.98
2018-11-20T01:23:31.155Z,985.94
2018-11-20T01:24:31.143Z,985.92
2018-11-20T01:25:31.130Z,985.90
2018-11-20T01:26:31.118Z,985.89
2018-11-20T01:27:31.645Z,985.81
2018-11-20T01:28:31.102Z,985.85
2018-11-20T01:29:31.101Z,985.83
2018-11-20T01:30:31.084Z,985.80
2018-11-20T01:31:31.070Z,985.76
2018-11-20T01:32:31.061Z,985.74
2018-11-20T01:33:31.052Z,985.76
2018-11-20T01:34:31.044Z,985.71
2018-11-20T01:35:31.032Z,985.63
2018-11-20T01:36:31.017Z,985.57
2018-11-20T01:37:31.011Z,985.57
2018-11-20T01:38:31.003Z,985.52
2018-11-20T01:39:30.992Z,985.52
2018-11-20T01:40:30.981Z,985.45
2018-11-20T01:41:31.028Z,985.47
2018-11-20T01:42:30.963Z,985.42
2018-11-20T01:43:30.953Z,985.42
2018-11-20T01:44:30.941Z,985.33
2018-11-20T01:45:30.940Z,985.31
2018-11-20T01:46:30.924Z,985.25
2018-11-20T01:47:30.912Z,985.25
2018-11-20T01:48:30.906Z,985.18
2018-11-20T01:49:30.892Z,985.24
2018-11-20T01:50:30.882Z,985.19
2018-11-20T01:51:30.955Z,985.26
2018-11-20T01:52:30.863Z,985.29
2018-11-20T01:53:30.859Z,985.19
2018-11-20T01:54:30.848Z,985.23
2018-11-20T01:55:30.833Z,985.25
2018-11-20T01:56:30.823Z,985.26
2018-11-20T01:57:30.819Z,985.34
2018-11-20T01:58:30.811Z,985.34
2018-11-20T01:59:30.794Z,985.28
2018-11-20T02:00:30.785Z,985.22
2018-11-20T02:01:30.773Z,985.29
2018-11-20T02:02:30.756Z,985.23
2018-11-20T02:03:30.755Z,985.22
2018-11-20T02:04:30.742Z,985.21
2018-11-20T02:05:30.736Z,985.32
2018-11-20T02:06:30.721Z,985.23
2018-11-20T02:07:30.717Z,985.29
2018-11-20T02:08:30.703Z,985.23
2018-11-20T02:09:30.691Z,985.19
2018-11-20T02:10:30.684Z,985.22
2018-11-20T02:11:30.672Z,985.21
2018-11-20T02:12:30.661Z,985.12
2018-11-20T02:13:30.654Z,985.07
2018-11-20T02:14:30.645Z,985.12
2018-11-20T02:15:30.637Z,985.08
2018-11-20T02:16:30.618Z,985.10
2018-11-20T02:17:30.619Z,985.09
2018-11-20T02:18:30.603Z,985.06
2018-11-20T02:19:30.595Z,985.03
2018-11-20T02:20:30.585Z,985.12
2018-11-20T02:21:30.575Z,985.05
2018-11-20T02:22:30.560Z,985.06
2018-11-20T02:23:30.555Z,985.09
2018-11-20T02:24:30.546Z,985.08
2018-11-20T02:25:30.532Z,985.06
2018-11-20T02:26:30.526Z,985.03
2018-11-20T02:27:30.511Z,985.02
2018-11-20T02:28:30.502Z,984.98
2018-11-20T02:29:30.499Z,985.02
2018-11-20T02:30:30.483Z,984.98
2018-11-20T02:31:30.478Z,984.92
2018-11-20T02:32:30.463Z,984.94
2018-11-20T02:33:30.450Z,984.89
2018-11-20T02:34:30.447Z,984.96
2018-11-20T02:35:30.437Z,984.93
2018-11-20T02:36:30.425Z,984.97
2018-11-20T02:37:30.411Z,984.98
2018-11-20T02:38:30.401Z,984.92
2018-11-20T02:39:30.396Z,984.90
2018-11-20T02:40:30.382Z,984.92
2018-11-20T02:41:30.371Z,984.89
2018-11-20T02:42:30.360Z,984.92
2018-11-20T02:43:30.352Z,984.94
2018-11-20T02:44:30.340Z,984.91
2018-11-20T02:45:30.334Z,984.93
2018-11-20T02:46:30.321Z,984.91
2018-11-20T02:47:30.314Z,984.89
2018-11-20T02:48:30.302Z,984.91
2018-11-20T02:49:30.292Z,984.90
2018-11-20T02:50:30.282Z,984.88
2018-11-20T02:51:30.374Z,984.88
2018-11-20T02:52:30.267Z,984.91
2018-11-20T02:53:30.252Z,984.91
2018-11-20T02:54:30.246Z,984.86
2018-11-20T02:55:30.235Z,984.84
2018-11-20T02:56:30.223Z,984.85
2018-11-20T02:57:30.221Z,984.87
2018-11-20T02:58:30.206Z,984.89
2018-11-20T02:59:30.194Z,984.82
2018-11-20T03:00:30.180Z,984.85
2018-11-20T03:01:30.177Z,984.81
2018-11-20T03:02:30.163Z,984.90
2018-11-20T03:03:30.177Z,984.89
2018-11-20T03:04:30.149Z,984.87
2018-11-20T03:05:30.133Z,984.81
2018-11-20T03:06:30.118Z,984.82
2018-11-20T03:07:30.113Z,984.81
2018-11-20T03:08:30.140Z,984.78
2018-11-20T03:09:30.090Z,984.77
2018-11-20T03:10:30.081Z,984.76
2018-11-20T03:11:30.073Z,984.75
2018-11-20T03:12:30.066Z,984.78
2018-11-20T03:13:30.057Z,984.73
2018-11-20T03:14:30.042Z,984.77
2018-11-20T03:15:30.034Z,984.78
2018-11-20T03:16:30.019Z,984.82
2018-11-20T03:17:30.011Z,984.80
2018-11-20T03:18:30.015Z,984.75
2018-11-20T03:19:29.992Z,984.82
2018-11-20T03:20:29.982Z,984.81
2018-11-20T03:21:29.970Z,984.82
2018-11-20T03:22:29.957Z,984.77
2018-11-20T03:23:29.950Z,984.74
2018-11-20T03:24:29.955Z,984.73
2018-11-20T03:25:29.939Z,984.79
2018-11-20T03:26:29.922Z,984.70
2018-11-20T03:27:29.910Z,984.70
2018-11-20T03:28:29.901Z,984.75
2018-11-20T03:29:29.891Z,984.73
2018-11-20T03:30:29.880Z,984.70
2018-11-20T03:31:29.879Z,984.79
2018-11-20T03:32:29.853Z,984.77
2018-11-20T03:33:29.848Z,984.80
2018-11-20T03:34:29.843Z,984.77
2018-11-20T03:35:29.842Z,984.74
2018-11-20T03:36:29.821Z,984.74
2018-11-20T03:37:29.809Z,984.76
2018-11-20T03:38:29.800Z,984.79
2018-11-20T03:39:29.790Z,984.73
2018-11-20T03:40:29.778Z,984.76
2018-11-20T03:41:29.772Z,984.78
2018-11-20T03:42:29.766Z,984.77
2018-11-20T03:43:29.750Z,984.74
2018-11-20T03:44:29.742Z,984.74
2018-11-20T03:45:29.729Z,984.76
2018-11-20T03:46:29.719Z,984.72
2018-11-20T03:47:29.711Z,984.71
2018-11-20T03:48:29.700Z,984.69
2018-11-20T03:49:29.695Z,984.72
2018-11-20T03:50:29.685Z,984.71
2018-11-20T03:51:29.671Z,984.73
2018-11-20T03:52:29.660Z,984.76
2018-11-20T03:53:29.651Z,984.73
2018-11-20T03:54:29.641Z,984.75
2018-11-20T03:55:29.629Z,984.72
2018-11-20T03:56:29.617Z,984.71
2018-11-20T03:57:29.610Z,984.71
2018-11-20T03:58:29.599Z,984.76
2018-11-20T03:59:29.597Z,984.67
2018-11-20T04:00:29.579Z,984.68
2018-11-20T04:01:29.575Z,984.67
2018-11-20T04:02:29.558Z,984.55
2018-11-20T04:03:29.547Z,984.56
2018-11-20T04:04:29.537Z,984.50
2018-11-20T04:05:29.528Z,984.51
2018-11-20T04:06:29.519Z,984.54
2018-11-20T04:07:29.511Z,984.53
2018-11-20T04:08:29.499Z,984.56
2018-11-20T04:09:29.487Z,984.50
2018-11-20T04:10:29.478Z,984.45
2018-11-20T04:11:29.464Z,984.43
2018-11-20T04:12:29.456Z,984.46
2018-11-20T04:13:29.463Z,984.54
2018-11-20T04:14:29.438Z,984.50
2018-11-20T04:15:29.431Z,984.42
2018-11-20T04:16:29.415Z,984.52
2018-11-20T04:17:29.408Z,984.55
2018-11-20T04:18:29.407Z,984.58
2018-11-20T04:19:29.389Z,984.57
2018-11-20T04:20:29.377Z,984.58
2018-11-20T04:21:29.369Z,984.53
2018-11-20T04:22:29.358Z,984.55
2018-11-20T04:23:29.353Z,984.52
2018-11-20T04:24:29.338Z,984.49
2018-11-20T04:25:29.330Z,984.44
2018-11-20T04:26:29.315Z,984.51
2018-11-20T04:27:29.310Z,984.49
2018-11-20T04:28:29.300Z,984.45
2018-11-20T04:29:29.291Z,984.44
2018-11-20T04:30:29.280Z,984.46
2018-11-20T04:31:29.269Z,984.43
2018-11-20T04:32:29.256Z,984.42
2018-11-20T04:33:29.252Z,984.36
2018-11-20T04:34:29.240Z,984.39
2018-11-20T04:35:29.233Z,984.41
2018-11-20T04:36:29.216Z,984.42
2018-11-20T04:37:29.209Z,984.45
2018-11-20T04:38:29.201Z,984.43
2018-11-20T04:39:29.193Z,984.47
2018-11-20T04:40:29.181Z,984.38
2018-11-20T04:41:29.167Z,984.42
2018-11-20T04:42:29.158Z,984.36
2018-11-20T04:43:29.154Z,984.42
2018-11-20T04:44:29.139Z,984.44
2018-11-20T04:45:29.127Z,984.45
2018-11-20T04:46:29.120Z,984.42
2018-11-20T04:47:29.109Z,984.44
2018-11-20T04:48:29.103Z,984.42
2018-11-20T04:49:29.096Z,984.47
2018-11-20T04:50:29.081Z,984.43
2018-11-20T04:51:29.066Z,984.45
2018-11-20T04:52:29.090Z,984.48
2018-11-20T04:53:29.061Z,984.48
2018-11-20T04:54:29.047Z,984.48
2018-11-20T04:55:29.034Z,984.48
2018-11-20T04:56:29.018Z,984.53
2018-11-20T04:57:29.017Z,984.51
2018-11-20T04:58:28.994Z,984.44
2018-11-20T04:59:28.991Z,984.46
2018-11-20T05:00:28.978Z,984.51
2018-11-20T05:01:28.962Z,984.52
2018-11-20T05:02:28.961Z,984.51
2018-11-20T05:03:28.952Z,984.49
2018-11-20T05:04:28.936Z,984.47
2018-11-20T05:05:28.927Z,984.48
2018-11-20T05:06:28.969Z,984.47
2018-11-20T05:07:28.909Z,984.43
2018-11-20T05:08:28.899Z,984.39
2018-11-20T05:09:28.889Z,984.42
2018-11-20T05:10:28.880Z,984.44
2018-11-20T05:11:28.864Z,984.40
2018-11-20T05:12:28.860Z,984.37
2018-11-20T05:13:28.889Z,984.40
2018-11-20T05:14:28.840Z,984.42
2018-11-20T05:15:28.824Z,984.37
2018-11-20T05:16:28.816Z,984.42
2018-11-20T05:17:28.801Z,984.40
2018-11-20T05:18:28.793Z,984.37
2018-11-20T05:19:28.779Z,984.42
2018-11-20T05:20:28.778Z,984.38
2018-11-20T05:21:28.767Z,984.33
2018-11-20T05:22:28.761Z,984.38
2018-11-20T05:23:28.742Z,984.39
2018-11-20T05:24:28.733Z,984.36
2018-11-20T05:25:28.722Z,984.38
2018-11-20T05:26:28.710Z,984.32
2018-11-20T05:27:28.707Z,984.33
2018-11-20T05:28:28.692Z,984.36
2018-11-20T05:29:28.679Z,984.30
2018-11-20T05:30:28.668Z,984.28
2018-11-20T05:31:28.667Z,984.32
2018-11-20T05:32:28.653Z,984.32
2018-11-20T05:33:28.641Z,984.34
2018-11-20T05:34:28.631Z,984.35
2018-11-20T05:35:28.621Z,984.30
2018-11-20T05:36:28.608Z,984.30
2018-11-20T05:37:28.603Z,984.31
2018-11-20T05:38:28.585Z,984.30
2018-11-20T05:39:28.573Z,984.38
2018-11-20T05:40:28.577Z,984.32
2018-11-20T05:41:28.557Z,984.31
2018-11-20T05:42:28.552Z,984.28
2018-11-20T05:43:28.535Z,984.32
2018-11-20T05:44:28.526Z,984.29
2018-11-20T05:45:28.517Z,984.31
2018-11-20T05:46:28.508Z,984.31
2018-11-20T05:47:28.497Z,984.33
2018-11-20T05:48:28.494Z,984.40
2018-11-20T05:49:28.474Z,984.42
2018-11-20T05:50:28.470Z,984.48
2018-11-20T05:51:28.456Z,984.43
2018-11-20T05:52:28.448Z,984.46
2018-11-20T05:53:28.434Z,984.49
2018-11-20T05:54:28.428Z,984.49
2018-11-20T05:55:28.417Z,984.54
2018-11-20T05:56:28.408Z,984.52
2018-11-20T05:57:28.396Z,984.53
2018-11-20T05:58:28.390Z,984.50
2018-11-20T05:59:28.378Z,984.53
2018-11-20T06:00:28.369Z,984.51
2018-11-20T06:01:28.355Z,984.51
2018-11-20T06:02:28.345Z,984.49
2018-11-20T06:03:28.341Z,984.50
2018-11-20T06:04:28.329Z,984.51
2018-11-20T06:05:28.320Z,984.51
2018-11-20T06:06:28.310Z,984.46
2018-11-20T06:07:28.300Z,984.49
2018-11-20T06:08:28.278Z,984.42
2018-11-20T06:09:28.278Z,984.43
2018-11-20T06:10:28.272Z,984.43
2018-11-20T06:11:28.256Z,984.42
2018-11-20T06:12:28.290Z,984.40
2018-11-20T06:13:28.236Z,984.46
2018-11-20T06:14:28.228Z,984.45
2018-11-20T06:15:28.214Z,984.46
2018-11-20T06:16:28.215Z,984.44
2018-11-20T06:17:28.192Z,984.39
2018-11-20T06:18:28.179Z,984.42
2018-11-20T06:19:28.172Z,984.40
2018-11-20T06:20:28.163Z,984.35
2018-11-20T06:21:28.157Z,984.34
2018-11-20T06:22:28.144Z,984.35
2018-11-20T06:23:28.136Z,984.30
2018-11-20T06:24:28.124Z,984.37
2018-11-20T06:25:28.111Z,984.40
2018-11-20T06:26:28.107Z,984.43
2018-11-20T06:27:28.095Z,984.43
2018-11-20T06:28:28.083Z,984.44
2018-11-20T06:29:28.099Z,984.45
2018-11-20T06:30:28.065Z,984.49
2018-11-20T06:31:28.053Z,984.38
2018-11-20T06:32:28.049Z,984.33
2018-11-20T06:33:28.033Z,984.33
2018-11-20T06:34:28.074Z,984.38
2018-11-20T06:35:28.015Z,984.36
2018-11-20T06:36:28.004Z,984.40
2018-11-20T06:37:27.990Z,984.40
2018-11-20T06:38:27.990Z,984.38
2018-11-20T06:39:27.978Z,984.37
2018-11-20T06:40:27.963Z,984.31
2018-11-20T06:41:28.015Z,984.33
2018-11-20T06:42:27.941Z,984.40
2018-11-20T06:43:27.929Z,984.37
2018-11-20T06:44:27.933Z,984.41
2018-11-20T06:45:27.919Z,984.37
2018-11-20T06:46:27.896Z,984.44
2018-11-20T06:47:27.892Z,984.44
2018-11-20T06:48:27.882Z,984.46
2018-11-20T06:49:27.865Z,984.42
2018-11-20T06:50:27.861Z,984.41
2018-11-20T06:51:27.852Z,984.41
2018-11-20T06:52:27.841Z,984.47
2018-11-20T06:53:27.931Z,984.47
2018-11-20T06:54:27.830Z,984.44
2018-11-20T06:55:27.812Z,984.43
2018-11-20T06:56:27.809Z,984.39
2018-11-20T06:57:27.867Z,984.38
2018-11-20T06:58:27.784Z,984.39
2018-11-20T06:59:27.772Z,984.42
2018-11-20T07:00:27.762Z,984.40
2018-11-20T07:01:27.797Z,984.41
2018-11-20T07:02:27.742Z,984.33
2018-11-20T07:03:27.734Z,984.32
2018-11-20T07:04:27.721Z,984.34
2018-11-20T07:05:27.711Z,984.31
2018-11-20T07:06:27.698Z,984.32
2018-11-20T07:07:27.825Z,984.40
2018-11-20T07:08:27.756Z,984.36
2018-11-20T07:09:27.675Z,984.36
2018-11-20T07:10:27.657Z,984.32
2018-11-20T07:11:27.654Z,984.33
2018-11-20T07:12:27.641Z,984.35
2018-11-20T07:13:27.633Z,984.37
2018-11-20T07:14:27.622Z,984.39
2018-11-20T07:15:27.705Z,984.41
2018-11-20T07:16:27.739Z,984.42
2018-11-20T07:17:27.585Z,984.40
2018-11-20T07:18:27.593Z,984.34
2018-11-20T07:19:27.573Z,984.36
2018-11-20T07:20:27.562Z,984.36
2018-11-20T07:21:27.555Z,984.36
2018-11-20T07:22:27.544Z,984.35
2018-11-20T07:23:27.533Z,984.36
2018-11-20T07:24:27.523Z,984.38
2018-11-20T07:25:27.509Z,984.43
2018-11-20T07:26:27.501Z,984.50
2018-11-20T07:27:27.498Z,984.46
2018-11-20T07:28:27.488Z,984.50
2018-11-20T07:29:27.514Z,984.49
2018-11-20T07:30:27.474Z,984.51
2018-11-20T07:31:27.509Z,984.48
2018-11-20T07:32:27.434Z,984.54
2018-11-20T07:33:27.437Z,984.53
2018-11-20T07:34:27.425Z,984.54
2018-11-20T07:35:27.407Z,984.55
2018-11-20T07:36:27.496Z,984.50
2018-11-20T07:37:27.717Z,984.48
2018-11-20T07:38:27.391Z,984.47
2018-11-20T07:39:27.372Z,984.48
2018-11-20T07:40:27.360Z,984.45
2018-11-20T07:41:27.353Z,984.35
2018-11-20T07:42:27.340Z,984.34
2018-11-20T07:43:27.347Z,984.37
2018-11-20T07:44:27.313Z,984.35
2018-11-20T07:45:27.333Z,984.35
2018-11-20T07:46:27.297Z,984.37
2018-11-20T07:47:27.288Z,984.41
2018-11-20T07:48:27.280Z,984.35
2018-11-20T07:49:27.269Z,984.33
2018-11-20T07:50:27.262Z,984.33
2018-11-20T07:51:27.277Z,984.32
2018-11-20T07:52:27.240Z,984.29
2018-11-20T07:53:27.229Z,984.34
2018-11-20T07:54:27.221Z,984.30
2018-11-20T07:55:27.279Z,984.31
2018-11-20T07:56:27.237Z,984.32
2018-11-20T07:57:27.196Z,984.34
2018-11-20T07:58:27.180Z,984.34
2018-11-20T07:59:27.180Z,984.35
2018-11-20T08:00:27.161Z,984.40
2018-11-20T08:01:27.151Z,984.42
2018-11-20T08:02:27.242Z,984.42
2018-11-20T08:03:27.133Z,984.41
2018-11-20T08:04:27.120Z,984.39
2018-11-20T08:05:27.105Z,984.41
2018-11-20T08:06:27.097Z,984.37
2018-11-20T08:07:27.092Z,984.34
2018-11-20T08:08:27.144Z,984.40
2018-11-20T08:09:27.067Z,984.38
2018-11-20T08:10:27.060Z,984.35
2018-11-20T08:11:27.052Z,984.38
2018-11-20T08:12:27.048Z,984.34
2018-11-20T08:13:27.031Z,984.36
2018-11-20T08:14:27.013Z,984.37
2018-11-20T08:15:27.085Z,984.34
2018-11-20T08:16:26.997Z,984.33
2018-11-20T08:17:26.997Z,984.32
2018-11-20T08:18:26.979Z,984.31
2018-11-20T08:19:26.972Z,984.35
2018-11-20T08:20:26.958Z,984.33
2018-11-20T08:21:26.949Z,984.31
2018-11-20T08:22:26.943Z,984.33
2018-11-20T08:23:26.934Z,984.31
2018-11-20T08:24:26.920Z,984.26
2018-11-20T08:25:27.013Z,984.26
2018-11-20T08:26:27.211Z,984.26
2018-11-20T08:27:26.899Z,984.25
2018-11-20T08:28:26.879Z,984.26
2018-11-20T08:29:26.868Z,984.28
2018-11-20T08:30:26.861Z,984.27
2018-11-20T08:31:26.848Z,984.26
2018-11-20T08:32:26.837Z,984.24
2018-11-20T08:33:26.836Z,984.26
2018-11-20T08:34:26.825Z,984.29
2018-11-20T08:35:26.809Z,984.23
2018-11-20T08:36:26.804Z,984.26
2018-11-20T08:37:26.787Z,984.21
2018-11-20T08:38:26.779Z,984.19
2018-11-20T08:39:26.768Z,984.18
2018-11-20T08:40:26.759Z,984.18
2018-11-20T08:41:26.749Z,984.15
2018-11-20T08:42:26.740Z,984.15
2018-11-20T08:43:26.732Z,984.19
2018-11-20T08:44:26.721Z,984.15
2018-11-20T08:45:26.708Z,984.13
2018-11-20T08:46:26.705Z,984.20
2018-11-20T08:47:26.707Z,984.30
2018-11-20T08:48:26.774Z,984.29
2018-11-20T08:49:26.672Z,984.28
2018-11-20T08:50:26.652Z,984.37
2018-11-20T08:51:26.648Z,984.24
2018-11-20T08:52:26.639Z,984.29
2018-11-20T08:53:26.656Z,984.28
2018-11-20T08:54:26.618Z,984.26
2018-11-20T08:55:26.608Z,984.27
2018-11-20T08:56:26.603Z,984.24
2018-11-20T08:57:26.588Z,984.24
2018-11-20T08:58:26.578Z,984.17
2018-11-20T08:59:26.569Z,984.18
2018-11-20T09:00:26.559Z,984.15
2018-11-20T09:01:26.549Z,984.17
2018-11-20T09:02:26.733Z,984.10
2018-11-20T09:03:26.641Z,984.06
2018-11-20T09:04:26.514Z,984.14
2018-11-20T09:05:26.506Z,984.12
2018-11-20T09:06:26.509Z,984.09
2018-11-20T09:07:26.488Z,984.09
2018-11-20T09:08:26.478Z,984.11
2018-11-20T09:09:26.470Z,984.15
2018-11-20T09:10:26.472Z,984.14
2018-11-20T09:11:26.448Z,984.08
2018-11-20T09:12:26.438Z,984.13
2018-11-20T09:13:26.429Z,984.16
2018-11-20T09:14:26.416Z,984.12
2018-11-20T09:15:26.407Z,984.13
2018-11-20T09:16:26.404Z,984.15
2018-11-20T09:17:26.387Z,984.15
2018-11-20T09:18:26.380Z,984.13
2018-11-20T09:19:26.362Z,984.10
2018-11-20T09:20:26.463Z,984.09
2018-11-20T09:21:26.437Z,984.08
2018-11-20T09:22:26.338Z,984.05
2018-11-20T09:23:26.327Z,984.06
2018-11-20T09:24:26.316Z,984.04
2018-11-20T09:25:26.338Z,984.11
2018-11-20T09:26:26.315Z,984.07
2018-11-20T09:27:26.294Z,984.01
2018-11-20T09:28:26.278Z,984.03
2018-11-20T09:29:26.274Z,984.02
2018-11-20T09:30:26.258Z,984.03
2018-11-20T09:31:26.250Z,984.03
2018-11-20T09:32:26.231Z,984.01
2018-11-20T09:33:26.232Z,984.03
2018-11-20T09:34:26.262Z,984.06
2018-11-20T09:35:26.419Z,984.05
2018-11-20T09:36:26.201Z,984.07
2018-11-20T09:37:26.189Z,984.04
2018-11-20T09:38:26.173Z,984.03
2018-11-20T09:39:26.174Z,984.00
2018-11-20T09:40:26.158Z,983.99
2018-11-20T09:41:26.150Z,983.97
2018-11-20T09:42:26.140Z,983.99
2018-11-20T09:43:26.126Z,983.96
2018-11-20T09:44:26.119Z,983.96
2018-11-20T09:45:26.108Z,983.89
2018-11-20T09:46:26.104Z,983.99
2018-11-20T09:47:26.088Z,983.96
2018-11-20T09:48:26.080Z,983.92
2018-11-20T09:49:26.076Z,983.90
2018-11-20T09:50:26.058Z,983.92
2018-11-20T09:51:26.050Z,983.85
2018-11-20T09:52:26.045Z,983.83
2018-11-20T09:53:26.028Z,983.85
2018-11-20T09:54:26.025Z,983.88
2018-11-20T09:55:26.008Z,983.86
2018-11-20T09:56:25.997Z,983.84
2018-11-20T09:57:25.993Z,983.84
2018-11-20T09:58:25.984Z,983.83
2018-11-20T09:59:26.091Z,983.83
2018-11-20T10:00:25.959Z,983.79
2018-11-20T10:01:25.948Z,983.75
2018-11-20T10:02:25.931Z,983.80
2018-11-20T10:03:25.927Z,983.78
2018-11-20T10:04:25.922Z,983.78
2018-11-20T10:05:25.905Z,983.81
2018-11-20T10:06:25.896Z,983.77
2018-11-20T10:07:25.888Z,983.76
2018-11-20T10:08:25.873Z,983.79
2018-11-20T10:09:25.871Z,983.77
2018-11-20T10:10:25.901Z,983.80
2018-11-20T10:11:25.844Z,983.82
2018-11-20T10:12:25.833Z,983.82
2018-11-20T10:13:25.824Z,983.81
2018-11-20T10:14:25.871Z,983.82
2018-11-20T10:15:25.808Z,983.76
2018-11-20T10:16:25.798Z,983.82
2018-11-20T10:17:25.793Z,983.77
2018-11-20T10:18:25.788Z,983.75
2018-11-20T10:19:25.773Z,983.77
2018-11-20T10:20:25.756Z,983.83
2018-11-20T10:21:25.807Z,983.87
2018-11-20T10:22:25.734Z,983.86
2018-11-20T10:23:25.755Z,983.88
2018-11-20T10:24:25.726Z,983.88
2018-11-20T10:25:25.746Z,983.86
2018-11-20T10:26:25.760Z,983.82
2018-11-20T10:27:25.684Z,983.82
2018-11-20T10:28:25.677Z,983.89
2018-11-20T10:29:25.667Z,983.84
2018-11-20T10:30:25.654Z,983.81
2018-11-20T10:31:25.651Z,983.78
2018-11-20T10:32:25.667Z,983.76
2018-11-20T10:33:25.635Z,983.78
2018-11-20T10:34:25.621Z,983.84
2018-11-20T10:35:25.610Z,983.83
2018-11-20T10:36:25.600Z,983.79
2018-11-20T10:37:25.734Z,983.76
2018-11-20T10:38:25.577Z,983.76
2018-11-20T10:39:25.576Z,983.74
2018-11-20T10:40:25.724Z,983.75
2018-11-20T10:41:25.546Z,983.74
2018-11-20T10:42:25.627Z,983.80
2018-11-20T10:43:25.536Z,983.70
2018-11-20T10:44:25.519Z,983.69
2018-11-20T10:45:25.544Z,983.72
2018-11-20T10:46:25.565Z,983.73
2018-11-20T10:47:25.487Z,983.70
2018-11-20T10:48:25.484Z,983.72
2018-11-20T10:49:25.469Z,983.70
2018-11-20T10:50:25.461Z,983.74
2018-11-20T10:51:25.445Z,983.72
2018-11-20T10:52:25.492Z,983.77
2018-11-20T10:53:25.430Z,983.82
2018-11-20T10:54:25.438Z,983.73
2018-11-20T10:55:25.406Z,983.71
2018-11-20T10:56:25.393Z,983.72
2018-11-20T10:57:25.386Z,983.67
2018-11-20T10:58:25.385Z,983.66
2018-11-20T10:59:25.394Z,983.70
2018-11-20T11:00:25.354Z,983.68
2018-11-20T11:01:25.343Z,983.66
2018-11-20T11:02:25.338Z,983.66
2018-11-20T11:03:25.340Z,983.65
2018-11-20T11:04:25.395Z,983.69
2018-11-20T11:05:25.311Z,983.64
2018-11-20T11:06:25.387Z,983.68
2018-11-20T11:07:25.367Z,983.69
2018-11-20T11:08:25.276Z,983.69
2018-11-20T11:09:25.267Z,983.65
2018-11-20T11:10:25.250Z,983.65
2018-11-20T11:11:25.304Z,983.67
2018-11-20T11:12:25.281Z,983.64
2018-11-20T11:13:25.226Z,983.61
2018-11-20T11:14:25.237Z,983.61
2018-11-20T11:15:25.209Z,983.59
2018-11-20T11:16:25.202Z,983.57
2018-11-20T11:17:25.187Z,983.58
2018-11-20T11:18:25.228Z,983.56
2018-11-20T11:19:25.163Z,983.50
2018-11-20T11:20:25.194Z,983.49
2018-11-20T11:21:25.148Z,983.48
2018-11-20T11:22:25.143Z,983.47
2018-11-20T11:23:25.128Z,983.50
2018-11-20T11:24:25.121Z,983.53
2018-11-20T11:25:25.106Z,983.53
2018-11-20T11:26:25.097Z,983.54
2018-11-20T11:27:25.090Z,983.55
2018-11-20T11:28:25.080Z,983.59
2018-11-20T11:29:25.068Z,983.60
2018-11-20T11:30:25.057Z,983.55
2018-11-20T11:31:25.046Z,983.55
2018-11-20T11:32:25.049Z,983.63
2018-11-20T11:33:28.779Z,983.59
2018-11-20T11:34:25.021Z,983.55
2018-11-20T11:35:25.012Z,983.52
2018-11-20T11:36:24.997Z,983.58
2018-11-20T11:37:24.994Z,983.59
2018-11-20T11:38:24.982Z,983.54
2018-11-20T11:39:24.971Z,983.55
2018-11-20T11:40:24.956Z,983.57
2018-11-20T11:41:24.944Z,983.56
2018-11-20T11:42:24.944Z,983.56
2018-11-20T11:43:28.158Z,983.49
2018-11-20T11:44:24.920Z,983.45
2018-11-20T11:45:24.909Z,983.46
2018-11-20T11:46:24.898Z,983.47
2018-11-20T11:47:24.890Z,983.48
2018-11-20T11:48:24.882Z,983.45
2018-11-20T11:49:24.871Z,983.44
2018-11-20T11:50:24.861Z,983.47
2018-11-20T11:51:25.543Z,983.48
2018-11-20T11:52:25.447Z,983.53
2018-11-20T11:53:24.828Z,983.52
2018-11-20T11:54:24.822Z,983.53
2018-11-20T11:55:24.808Z,983.57
2018-11-20T11:56:24.799Z,983.61
2018-11-20T11:57:24.792Z,983.64
2018-11-20T11:58:24.780Z,983.61
2018-11-20T11:59:24.773Z,983.61
2018-11-20T12:00:24.761Z,983.66
2018-11-20T12:01:24.749Z,983.63
2018-11-20T12:03:24.729Z,983.65
2018-11-20T12:04:24.718Z,983.65
2018-11-20T12:05:24.714Z,983.69
2018-11-20T12:06:24.700Z,983.68
2018-11-20T12:07:24.692Z,983.71
2018-11-20T12:08:24.687Z,983.73
2018-11-20T12:09:24.663Z,983.75
2018-11-20T12:10:24.655Z,983.74
2018-11-20T12:11:24.647Z,983.76
2018-11-20T12:12:24.638Z,983.82
2018-11-20T12:13:24.629Z,983.81
2018-11-20T12:14:24.618Z,983.77
2018-11-20T12:15:24.607Z,983.74
2018-11-20T12:16:24.598Z,983.74
2018-11-20T12:17:24.589Z,983.76
2018-11-20T12:18:24.580Z,983.69
2018-11-20T12:19:24.563Z,983.72
2018-11-20T12:20:24.556Z,983.79
2018-11-20T12:21:24.548Z,983.75
2018-11-20T12:22:24.539Z,983.78
2018-11-20T12:23:24.531Z,983.75
2018-11-20T12:24:24.517Z,983.81
2018-11-20T12:25:24.508Z,983.87
2018-11-20T12:26:24.495Z,983.88
2018-11-20T12:27:24.490Z,983.91
2018-11-20T12:28:24.484Z,983.96
2018-11-20T12:29:24.464Z,983.94